Time;durP1;ratioP1;P1;durP2;ratioP2;P2;SDS_P1;SDS_P2;PMS_P1;PMS_P2;Temp;Humidity;BMP_temperature;BMP_pressure;BME280_temperature;BME280_humidity;BME280_pressure;Samples;Min_cycle;Max_cycle;Signal;HPM_P1;HPM_P2
2021/12/09 00:01:22;;;;;;;97.03;39.55;;;;;;;4.40;54.39;99948.38;5100898;28;20079;-73
2021/12/09 00:03:55;;;;;;;93.05;38.78;;;;;;;4.19;54.63;99937.59;5102005;28;20044;-73
2021/12/09 00:06:26;;;;;;;95.07;39.17;;;;;;;3.63;56.00;99929.38;5100817;28;20070;-72
2021/12/09 00:08:56;;;;;;;95.97;39.00;;;;;;;3.58;56.33;99920.03;5100777;28;20047;-72
2021/12/09 00:11:22;;;;;;;98.22;39.28;;;;;;;3.13;57.07;99921.47;5096545;28;20068;-73
2021/12/09 00:13:49;;;;;;;99.82;39.63;;;;;;;3.72;56.12;99918.19;5095316;28;20058;-72
2021/12/09 00:16:16;;;;;;;97.30;37.63;;;;;;;3.44;56.84;99917.53;5094917;28;20052;-72
2021/12/09 00:18:43;;;;;;;97.47;37.60;;;;;;;3.53;56.36;99911.63;5075849;28;20047;-72
2021/12/09 00:21:10;;;;;;;102.88;39.63;;;;;;;3.10;57.58;99906.72;5094327;28;20406;-71
2021/12/09 00:23:37;;;;;;;104.07;38.78;;;;;;;3.36;57.04;99908.47;5094444;28;20044;-72
2021/12/09 00:26:04;;;;;;;101.65;38.75;;;;;;;2.87;58.38;99899.56;5094580;28;20063;-72
2021/12/09 00:28:31;;;;;;;105.70;42.28;;;;;;;3.10;57.76;99906.72;5076528;28;20039;-71
2021/12/09 00:30:57;;;;;;;102.68;40.40;;;;;;;3.04;57.25;99907.13;5095478;28;20162;-71
2021/12/09 00:33:24;;;;;;;99.80;39.42;;;;;;;2.88;58.53;99903.91;5093619;28;20055;-72
2021/12/09 00:35:56;;;;;;;95.35;38.50;;;;;;;2.74;58.11;99907.47;5095141;28;20136;-72
2021/12/09 00:38:36;;;;;;;95.72;38.05;;;;;;;2.72;58.93;99908.50;5079860;28;20064;-71
2021/12/09 00:41:06;;;;;;;111.90;40.15;;;;;;;3.29;57.46;99898.38;5096619;28;20063;-72
2021/12/09 00:43:34;;;;;;;108.20;41.08;;;;;;;3.60;56.75;99893.53;5097051;28;20063;-72
2021/12/09 00:46:01;;;;;;;101.03;40.33;;;;;;;3.39;57.05;99898.56;5097165;28;20106;-73
2021/12/09 00:48:28;;;;;;;100.93;37.20;;;;;;;3.48;56.37;99895.28;5097225;28;20074;-72
2021/12/09 00:50:56;;;;;;;104.68;41.75;;;;;;;3.55;56.76;99901.78;5096581;28;20078;-72
2021/12/09 00:53:22;;;;;;;111.53;41.40;;;;;;;3.42;56.44;99905.41;5094932;28;20147;-72
2021/12/09 00:55:49;;;;;;;106.82;41.45;;;;;;;3.25;57.18;99896.88;5095689;28;20150;-72
2021/12/09 00:58:16;;;;;;;101.28;40.47;;;;;;;2.84;57.66;99891.88;5094908;28;20123;-72
2021/12/09 01:00:43;;;;;;;98.78;38.00;;;;;;;2.70;58.72;99895.47;5094144;28;20483;-72
2021/12/09 01:03:10;;;;;;;99.53;38.88;;;;;;;2.81;58.26;99902.63;5093726;28;20048;-72
2021/12/09 01:05:36;;;;;;;96.47;39.50;;;;;;;2.71;58.67;99898.94;5094054;28;20064;-72
2021/12/09 01:08:04;;;;;;;102.05;40.20;;;;;;;2.90;58.48;99901.97;5094468;28;20044;-72
2021/12/09 01:10:31;;;;;;;109.88;40.13;;;;;;;2.83;58.53;99904.19;5094770;28;20060;-72
2021/12/09 01:12:57;;;;;;;106.68;40.60;;;;;;;3.10;57.45;99896.19;5094233;28;20067;-72
2021/12/09 01:15:25;;;;;;;108.72;42.38;;;;;;;3.29;57.14;99902.78;5093207;28;20070;-72
2021/12/09 01:17:51;;;;;;;111.93;41.22;;;;;;;3.29;57.33;99918.59;5093883;28;20082;-72
2021/12/09 01:20:22;;;;;;;105.78;41.90;;;;;;;3.31;56.96;99911.44;5094095;28;20079;-72
2021/12/09 01:22:52;;;;;;;109.50;43.08;;;;;;;3.80;55.34;99907.94;5093348;28;20044;-71
2021/12/09 01:25:20;;;;;;;114.00;44.57;;;;;;;3.90;55.19;99916.84;5092361;28;20140;-73
2021/12/09 01:27:48;;;;;;;108.85;41.40;;;;;;;3.41;56.40;99923.00;5092923;28;20095;-72
2021/12/09 01:30:19;;;;;;;109.00;42.20;;;;;;;3.33;56.73;99928.00;5093465;28;20068;-72
2021/12/09 01:32:53;;;;;;;103.38;39.97;;;;;;;3.51;55.96;99944.28;5092845;28;20166;-71
2021/12/09 01:35:23;;;;;;;106.20;40.75;;;;;;;3.67;56.07;99944.03;5090958;28;20071;-72
2021/12/09 01:37:54;;;;;;;108.30;42.83;;;;;;;3.25;57.17;99949.56;5095023;28;20127;-73
2021/12/09 01:40:23;;;;;;;106.13;40.67;;;;;;;3.64;56.01;99949.50;5094753;28;20282;-72
2021/12/09 01:42:50;;;;;;;108.07;42.17;;;;;;;3.45;56.34;99940.28;5095669;28;20062;-72
2021/12/09 01:45:17;;;;;;;115.05;42.97;;;;;;;3.65;56.01;99946.78;5096279;28;20068;-72
2021/12/09 01:47:44;;;;;;;111.45;40.83;;;;;;;3.56;55.97;99942.16;5097811;28;20126;-72
2021/12/09 01:50:13;;;;;;;106.22;41.30;;;;;;;3.01;57.62;99943.38;5097938;28;20043;-71
2021/12/09 01:52:40;;;;;;;106.07;39.95;;;;;;;3.09;57.82;99939.28;5097370;28;20063;-72
2021/12/09 01:55:09;;;;;;;114.60;42.15;;;;;;;3.12;57.32;99937.34;5095819;28;20131;-72
2021/12/09 01:57:36;;;;;;;103.25;42.72;;;;;;;3.57;56.08;99936.78;5097496;28;20480;-72
2021/12/09 02:00:11;;;;;;;104.25;42.40;;;;;;;4.01;54.86;99932.72;5095178;28;20068;-73
2021/12/09 02:02:41;;;;;;;105.53;42.53;;;;;;;4.22;54.33;99925.03;5096288;28;20456;-73
2021/12/09 02:09:04;;;;;;;107.97;41.17;;;;;;;3.64;55.94;99925.78;5063282;28;20066;-72
2021/12/09 02:11:30;;;;;;;104.88;41.65;;;;;;;3.32;56.07;99926.28;5077098;28;20400;-72
2021/12/09 02:13:57;;;;;;;100.40;39.90;;;;;;;3.23;56.70;99925.16;5076426;28;20161;-72
2021/12/09 02:16:25;;;;;;;102.53;40.95;;;;;;;2.96;57.31;99917.38;5095957;28;20040;-72
2021/12/09 02:18:52;;;;;;;115.10;42.38;;;;;;;3.18;57.46;99921.13;5095939;28;20499;-72
2021/12/09 02:21:21;;;;;;;116.10;42.75;;;;;;;2.88;58.40;99916.22;5096553;28;20070;-72
2021/12/09 02:23:51;;;;;;;107.57;42.22;;;;;;;3.43;56.30;99915.84;5096657;28;20689;-72
2021/12/09 02:26:21;;;;;;;117.82;42.08;;;;;;;3.65;56.21;99911.69;5095520;28;20458;-72
2021/12/09 02:28:51;;;;;;;106.30;41.50;;;;;;;2.94;57.67;99910.50;5095990;28;20136;-72
2021/12/09 02:31:19;;;;;;;99.75;40.75;;;;;;;2.94;57.27;99913.97;5095710;28;20040;-72
2021/12/09 02:33:45;;;;;;;110.80;42.97;;;;;;;3.91;55.51;99920.31;5096315;28;20051;-72
2021/12/09 02:36:12;;;;;;;117.00;43.60;;;;;;;4.30;54.21;99916.56;5097152;28;20055;-72
2021/12/09 02:38:43;;;;;;;107.70;41.35;;;;;;;4.23;53.89;99920.63;5095340;28;20064;-72
2021/12/09 02:41:24;;;;;;;112.10;43.90;;;;;;;3.81;55.30;99909.63;5097488;28;20447;-72
2021/12/09 02:43:56;;;;;;;115.85;44.80;;;;;;;3.98;54.93;99909.25;5096624;28;20090;-72
2021/12/09 02:46:26;;;;;;;115.95;43.72;;;;;;;3.95;55.14;99913.88;5097248;28;20122;-72
2021/12/09 02:48:54;;;;;;;107.97;43.17;;;;;;;3.41;56.16;99917.75;5097536;28;20040;-72
2021/12/09 02:51:21;;;;;;;105.18;42.58;;;;;;;3.16;57.20;99912.53;5098419;28;20132;-72
2021/12/09 02:53:47;;;;;;;107.65;41.05;;;;;;;3.15;57.34;99916.09;5095173;28;20060;-72
2021/12/09 02:56:14;;;;;;;118.25;45.63;;;;;;;3.69;55.87;99923.69;5095714;28;20142;-72
2021/12/09 02:58:41;;;;;;;112.43;44.25;;;;;;;4.08;54.37;99911.19;5095378;28;20048;-72
2021/12/09 03:01:15;;;;;;;115.45;43.63;;;;;;;3.54;56.07;99918.56;5096853;28;20050;-72
2021/12/09 03:03:55;;;;;;;111.80;41.83;;;;;;;2.98;58.04;99918.13;5092792;28;20502;-72
2021/12/09 03:06:27;;;;;;;109.38;42.90;;;;;;;3.20;57.38;99913.97;5097591;28;20048;-72
2021/12/09 03:08:54;;;;;;;121.70;43.55;;;;;;;3.17;57.35;99914.19;5092896;28;20060;-72
2021/12/09 03:11:22;;;;;;;107.63;42.78;;;;;;;3.65;56.28;99920.44;5097744;28;20044;-72
2021/12/09 03:13:50;;;;;;;123.13;43.20;;;;;;;3.11;57.01;99918.09;5090034;28;20063;-72
2021/12/09 03:16:22;;;;;;;110.82;43.50;;;;;;;3.45;56.43;99916.56;5096925;28;20048;-72
2021/12/09 03:18:53;;;;;;;115.78;43.92;;;;;;;3.26;56.70;99919.66;5096212;28;20054;-72
2021/12/09 03:21:25;;;;;;;116.10;44.45;;;;;;;3.82;55.64;99919.22;5095261;28;20075;-71
2021/12/09 03:23:53;;;;;;;117.82;46.20;;;;;;;3.69;55.86;99918.41;5094772;28;20119;-72
2021/12/09 03:26:26;;;;;;;117.78;44.72;;;;;;;4.08;54.62;99911.19;5095812;28;20504;-73
2021/12/09 03:28:53;;;;;;;112.13;42.72;;;;;;;3.79;55.82;99906.25;5095355;28;20472;-72
2021/12/09 03:31:20;;;;;;;109.70;43.75;;;;;;;3.37;56.23;99913.66;5096732;28;20068;-72
2021/12/09 03:33:47;;;;;;;113.88;44.38;;;;;;;2.80;58.16;99914.09;5096983;28;20044;-72
2021/12/09 03:36:14;;;;;;;119.72;43.72;;;;;;;2.96;58.22;99912.09;5096797;28;20059;-72
2021/12/09 03:38:41;;;;;;;112.13;45.45;;;;;;;3.83;56.14;99904.25;5097808;28;20540;-72
2021/12/09 03:41:07;;;;;;;127.50;44.95;;;;;;;3.91;55.22;99909.78;5096202;28;20043;-72
2021/12/09 03:43:34;;;;;;;121.97;45.10;;;;;;;2.99;57.76;99917.16;5097642;28;20074;-72
2021/12/09 03:46:02;;;;;;;123.35;46.83;;;;;;;2.93;57.82;99911.47;5095264;28;20131;-72
2021/12/09 03:48:29;;;;;;;119.10;44.53;;;;;;;3.58;56.53;99914.75;5097812;28;20044;-72
2021/12/09 03:50:57;;;;;;;122.30;46.28;;;;;;;3.37;56.88;99913.66;5096489;28;20048;-72
2021/12/09 03:53:23;;;;;;;115.45;44.80;;;;;;;3.44;56.51;99916.69;5097045;28;20140;-72
2021/12/09 03:55:51;;;;;;;126.20;47.20;;;;;;;3.45;56.30;99916.56;5095155;28;20123;-72
2021/12/09 03:58:18;;;;;;;116.90;42.95;;;;;;;3.61;56.03;99907.59;5094709;28;20064;-72
2021/12/09 04:00:45;;;;;;;113.50;44.50;;;;;;;3.62;55.74;99910.09;5094715;28;20055;-72
2021/12/09 04:03:11;;;;;;;112.20;42.88;;;;;;;3.34;56.77;99912.06;5094177;28;20138;-72
2021/12/09 04:05:38;;;;;;;117.53;46.97;;;;;;;3.66;55.69;99905.44;5093811;28;20067;-72
2021/12/09 04:08:05;;;;;;;116.15;45.20;;;;;;;3.40;56.85;99916.06;5093001;28;20114;-72
2021/12/09 04:10:31;;;;;;;120.20;44.90;;;;;;;3.31;57.02;99919.34;5093688;28;20135;-72
2021/12/09 04:12:59;;;;;;;116.38;45.35;;;;;;;3.46;56.42;99905.06;5093227;28;20064;-72
2021/12/09 04:15:25;;;;;;;113.75;46.08;;;;;;;3.14;57.06;99909.97;5096651;28;20067;-72
2021/12/09 04:17:52;;;;;;;114.85;44.65;;;;;;;2.83;58.01;99913.88;5096652;28;20048;-72
2021/12/09 04:20:20;;;;;;;112.75;46.60;;;;;;;2.91;58.23;99908.09;5092848;28;20101;-72
2021/12/09 04:22:49;;;;;;;112.32;44.67;;;;;;;3.36;57.05;99917.25;5095480;28;20100;-72
2021/12/09 04:25:18;;;;;;;116.22;44.00;;;;;;;3.58;56.26;99914.75;5094810;28;20439;-72
2021/12/09 04:27:45;;;;;;;115.60;45.88;;;;;;;3.50;56.36;99919.72;5095178;28;20118;-72
2021/12/09 04:30:15;;;;;;;115.68;46.70;;;;;;;3.46;56.61;99920.88;5093534;28;20067;-72
2021/12/09 04:32:42;;;;;;;113.53;44.05;;;;;;;4.17;54.76;99921.91;5076088;28;20055;-72
2021/12/09 04:35:10;;;;;;;112.60;43.65;;;;;;;4.41;53.75;99929.81;5094272;28;20123;-72
2021/12/09 04:37:38;;;;;;;106.60;43.83;;;;;;;4.34;53.94;99917.19;5093967;28;20111;-72
2021/12/09 04:40:10;;;;;;;105.22;41.03;;;;;;;4.00;54.67;99920.50;5095463;28;20078;-72
2021/12/09 04:42:37;;;;;;;116.90;46.33;;;;;;;4.48;53.31;99925.75;5093629;28;20064;-72
2021/12/09 04:45:07;;;;;;;109.22;45.13;;;;;;;4.48;53.54;99933.66;5092158;28;20131;-72
2021/12/09 04:47:34;;;;;;;110.78;44.25;;;;;;;3.80;54.86;99932.50;5091948;28;20052;-72
2021/12/09 04:50:02;;;;;;;111.15;45.55;;;;;;;3.72;55.25;99940.13;5093317;28;20048;-72
2021/12/09 04:52:28;;;;;;;106.35;44.53;;;;;;;4.45;53.55;99947.09;5092519;28;20112;-72
2021/12/09 04:54:55;;;;;;;110.80;44.15;;;;;;;4.25;53.56;99950.34;5094035;28;20067;-72
2021/12/09 04:57:21;;;;;;;110.20;44.50;;;;;;;4.37;53.32;99938.91;5093968;28;20056;-69
2021/12/09 04:59:48;;;;;;;110.45;44.60;;;;;;;4.47;53.23;99937.28;5092942;28;20131;-69
2021/12/09 05:02:26;;;;;;;108.65;44.05;;;;;;;3.78;54.30;99944.97;5092984;28;20134;-69
2021/12/09 05:04:52;;;;;;;110.05;44.95;;;;;;;3.70;55.43;99949.06;5091638;28;20094;-69
2021/12/09 05:07:19;;;;;;;112.47;44.50;;;;;;;3.91;54.71;99963.34;5094082;28;20451;-69
2021/12/09 05:09:50;;;;;;;114.97;44.92;;;;;;;3.81;55.25;99973.75;5093437;28;20074;-69
2021/12/09 05:12:19;;;;;;;111.45;45.80;;;;;;;4.08;54.66;99974.47;5101524;28;20070;-69
2021/12/09 05:14:45;;;;;;;110.85;45.17;;;;;;;4.16;53.96;99972.16;5097569;28;20071;-69
2021/12/09 05:17:12;;;;;;;105.53;44.85;;;;;;;4.00;54.81;99965.34;5096221;28;20048;-69
2021/12/09 05:19:39;;;;;;;121.50;44.95;;;;;;;4.13;54.42;99965.28;5096564;28;20044;-69
2021/12/09 05:22:05;;;;;;;109.80;44.42;;;;;;;4.56;53.72;99962.13;5095336;28;20560;-69
2021/12/09 05:24:34;;;;;;;112.05;44.13;;;;;;;3.78;55.53;99962.56;5097504;28;20120;-69
2021/12/09 05:27:01;;;;;;;114.88;45.17;;;;;;;3.80;55.84;99950.09;5094593;28;20104;-69
2021/12/09 05:29:33;;;;;;;116.53;44.78;;;;;;;3.31;57.24;99948.31;5096925;28;20123;-68
2021/12/09 05:32:08;;;;;;;116.40;45.92;;;;;;;4.04;55.97;99964.16;5097287;28;20071;-69
2021/12/09 05:34:44;;;;;;;112.18;46.78;;;;;;;3.98;55.45;99974.31;5097658;28;20499;-69
2021/12/09 05:37:14;;;;;;;115.28;47.00;;;;;;;4.28;55.48;99961.53;5097533;28;20036;-69
2021/12/09 05:39:41;;;;;;;112.47;44.65;;;;;;;3.90;55.42;99959.03;5097844;28;20086;-69
2021/12/09 05:42:10;;;;;;;117.00;44.08;;;;;;;3.88;55.24;99965.38;5080165;28;20042;-69
2021/12/09 05:44:37;;;;;;;115.40;46.63;;;;;;;4.01;55.50;99974.09;5095937;28;20075;-69
2021/12/09 05:47:05;;;;;;;114.65;46.17;;;;;;;4.19;55.02;99977.19;5097236;28;20471;-69
2021/12/09 05:49:34;;;;;;;112.15;44.15;;;;;;;4.03;54.85;99972.19;5078535;28;20047;-69
2021/12/09 05:52:01;;;;;;;114.43;43.70;;;;;;;3.92;55.32;99974.75;5097236;28;20044;-69
2021/12/09 05:54:28;;;;;;;110.47;43.20;;;;;;;3.70;56.36;99971.00;5097374;28;20067;-68
2021/12/09 05:56:55;;;;;;;115.03;43.97;;;;;;;3.77;55.96;99974.88;5097934;28;20051;-69
2021/12/09 05:59:21;;;;;;;110.35;42.65;;;;;;;3.48;56.88;99979.59;5096875;28;20044;-68
2021/12/09 06:01:48;;;;;;;123.03;45.38;;;;;;;3.28;57.30;99969.59;5092445;28;20057;-68
2021/12/09 06:04:15;;;;;;;108.35;44.90;;;;;;;3.96;55.89;99963.88;5095843;28;20189;-69
2021/12/09 06:06:42;;;;;;;115.05;44.83;;;;;;;4.34;55.40;99965.53;5094436;28;20067;-69
2021/12/09 06:09:10;;;;;;;125.30;46.25;;;;;;;4.16;55.47;99951.88;5098878;28;20094;-69
2021/12/09 06:11:39;;;;;;;115.57;45.30;;;;;;;4.35;55.15;99954.00;5097468;28;20040;-69
2021/12/09 06:14:06;;;;;;;115.53;46.45;;;;;;;4.64;54.70;99961.53;5098725;28;20127;-69
2021/12/09 06:16:33;;;;;;;124.68;46.40;;;;;;;4.49;54.36;99987.28;5096930;28;20124;-68
2021/12/09 06:19:01;;;;;;;121.95;46.55;;;;;;;4.67;54.54;99993.81;5094207;28;20043;-68
2021/12/09 06:21:28;;;;;;;112.68;46.47;;;;;;;4.96;53.24;99978.44;5096741;28;20079;-69
2021/12/09 06:23:57;;;;;;;122.22;46.22;;;;;;;4.44;54.24;99970.97;5095837;28;20055;-68
2021/12/09 06:26:23;;;;;;;116.50;46.92;;;;;;;4.39;54.46;99973.09;5097107;28;20063;-68
2021/12/09 06:28:50;;;;;;;109.15;45.53;;;;;;;4.49;54.50;99980.19;5095041;28;20094;-68
2021/12/09 06:31:16;;;;;;;116.15;46.42;;;;;;;4.19;55.01;99964.84;5093866;28;20060;-68
2021/12/09 06:33:43;;;;;;;119.53;46.38;;;;;;;3.75;57.00;99958.34;5096022;28;20074;-69
2021/12/09 06:36:09;;;;;;;115.40;45.20;;;;;;;3.63;57.45;99963.66;5094967;28;20103;-68
2021/12/09 06:38:36;;;;;;;131.57;49.55;;;;;;;3.38;58.68;99960.09;5079482;28;20123;-68
2021/12/09 06:41:03;;;;;;;124.18;48.30;;;;;;;3.46;59.23;99962.19;5094717;28;20044;-68
2021/12/09 06:43:30;;;;;;;124.82;47.35;;;;;;;3.20;59.78;99958.75;5095986;28;20117;-68
2021/12/09 06:45:58;;;;;;;129.10;48.45;;;;;;;3.38;59.70;99965.38;5094262;28;20440;-68
2021/12/09 06:48:25;;;;;;;124.45;49.40;;;;;;;3.13;60.58;99960.13;5093217;28;20101;-68
2021/12/09 06:50:51;;;;;;;122.03;48.45;;;;;;;3.02;61.29;99961.72;5095908;28;20128;-68
2021/12/09 06:53:18;;;;;;;136.95;52.63;;;;;;;3.14;61.65;99970.53;5095368;28;20044;-69
2021/12/09 06:55:44;;;;;;;148.55;52.97;;;;;;;3.77;59.72;99971.41;5085805;28;20082;-69
2021/12/09 06:58:11;;;;;;;148.15;53.03;;;;;;;3.87;59.86;99974.25;5095712;28;20040;-68
2021/12/09 07:00:42;;;;;;;135.70;53.30;;;;;;;3.41;60.83;99952.00;5096043;28;20059;-68
2021/12/09 07:03:10;;;;;;;141.32;52.05;;;;;;;3.96;60.06;99953.34;5081568;28;20047;-68
2021/12/09 07:05:37;;;;;;;147.98;51.85;;;;;;;3.23;61.46;99974.34;5098145;28;20051;-68
2021/12/09 07:08:05;;;;;;;142.13;51.88;;;;;;;3.39;61.25;99977.59;5098012;28;20048;-68
2021/12/09 07:10:32;;;;;;;146.25;50.88;;;;;;;3.71;60.22;99971.88;5097837;28;20139;-72
2021/12/09 07:12:59;;;;;;;140.55;51.03;;;;;;;3.18;61.69;99977.28;5098480;28;20403;-72
2021/12/09 07:15:25;;;;;;;146.18;52.13;;;;;;;3.60;60.70;99977.03;5101598;28;20040;-72
2021/12/09 07:17:52;;;;;;;147.30;54.35;;;;;;;3.41;60.91;99982.75;5099095;28;20044;-71
2021/12/09 07:20:23;;;;;;;144.10;55.50;;;;;;;4.30;59.02;99990.44;5098498;28;20044;-72
2021/12/09 07:22:50;;;;;;;153.75;55.85;;;;;;;4.63;58.27;99978.34;5099179;28;20044;-72
2021/12/09 07:25:19;;;;;;;154.20;55.55;;;;;;;4.36;58.46;99973.31;5090219;28;20052;-72
2021/12/09 07:27:46;;;;;;;156.80;55.78;;;;;;;3.48;61.15;99970.84;5097987;28;20122;-72
2021/12/09 07:30:14;;;;;;;150.02;55.42;;;;;;;3.65;60.79;99969.66;5099461;28;20095;-72
2021/12/09 07:32:42;;;;;;;140.07;51.00;;;;;;;3.15;62.11;99981.91;5097964;28;20105;-72
2021/12/09 07:35:09;;;;;;;150.85;54.03;;;;;;;3.60;61.49;99983.16;5081598;28;20101;-71
2021/12/09 07:37:38;;;;;;;149.82;56.00;;;;;;;3.75;60.08;99987.34;5100077;28;20055;-72
2021/12/09 07:40:11;;;;;;;144.23;54.47;;;;;;;3.77;61.00;99995.97;5100008;28;20043;-72
2021/12/09 07:42:38;;;;;;;151.30;55.78;;;;;;;3.66;61.38;99990.63;5099849;28;20044;-72
2021/12/09 07:45:06;;;;;;;154.52;55.25;;;;;;;3.66;61.16;99974.81;5098195;28;20115;-72
2021/12/09 07:47:32;;;;;;;150.43;55.08;;;;;;;3.53;61.70;99980.13;5097408;28;20064;-72
2021/12/09 07:49:59;;;;;;;165.93;57.33;;;;;;;3.54;61.92;100000.25;5097816;28;20110;-72
2021/12/09 07:52:26;;;;;;;149.45;53.70;;;;;;;3.50;61.92;100011.94;5097681;28;20063;-71
2021/12/09 07:54:52;;;;;;;160.13;56.10;;;;;;;3.72;61.85;100021.81;5098300;28;20099;-71
2021/12/09 07:57:19;;;;;;;154.65;57.17;;;;;;;4.43;59.62;100012.31;5099198;28;20415;-72
2021/12/09 07:59:45;;;;;;;162.07;59.08;;;;;;;4.67;59.12;100019.38;5099835;28;20479;-72
2021/12/09 08:02:12;;;;;;;169.82;59.55;;;;;;;4.57;59.09;100006.03;5097599;28;20487;-72
2021/12/09 08:04:39;;;;;;;162.05;57.30;;;;;;;4.05;60.82;100012.47;5097351;28;20514;-72
2021/12/09 08:07:05;;;;;;;159.80;58.25;;;;;;;4.74;59.06;100020.63;5097429;28;20548;-72
2021/12/09 08:09:32;;;;;;;148.23;56.63;;;;;;;5.05;58.15;100020.97;5098656;28;20515;-72
2021/12/09 08:11:58;;;;;;;161.82;56.08;;;;;;;4.98;58.13;100012.66;5099174;28;20040;-72
2021/12/09 08:14:25;;;;;;;160.10;59.38;;;;;;;4.94;58.53;100029.69;5095990;28;20097;-72
2021/12/09 08:17:09;;;;;;;158.27;58.70;;;;;;;4.92;58.27;100045.66;5097040;28;20044;-72
2021/12/09 08:19:38;;;;;;;145.43;54.55;;;;;;;4.90;58.25;100025.59;5098517;28;20044;-72
2021/12/09 08:22:06;;;;;;;150.95;56.25;;;;;;;4.53;59.33;100018.59;5098107;28;20074;-74
2021/12/09 08:24:39;;;;;;;113.22;40.72;;;;;;;4.37;60.26;100018.06;5100939;28;20070;-73
2021/12/09 08:27:05;;;;;;;139.90;54.08;;;;;;;3.90;61.67;100001.22;5093286;28;20052;-74
2021/12/09 08:29:32;;;;;;;143.77;54.20;;;;;;;3.38;62.73;99996.97;5102003;28;20044;-74
2021/12/09 08:32:01;;;;;;;165.05;55.83;;;;;;;3.53;62.44;99985.41;5104582;28;20062;-74
2021/12/09 08:34:28;;;;;;;145.50;53.05;;;;;;;3.10;63.18;99985.72;5101531;28;20047;-74
2021/12/09 08:36:57;;;;;;;156.80;55.45;;;;;;;3.79;61.94;99995.88;5100390;28;20048;-74
2021/12/09 08:39:23;;;;;;;159.13;56.72;;;;;;;3.61;62.59;99995.38;5102125;28;20052;-74
2021/12/09 08:41:50;;;;;;;154.02;56.00;;;;;;;3.62;62.81;99988.31;5102772;28;20494;-74
2021/12/09 08:44:17;;;;;;;155.07;58.05;;;;;;;3.61;61.99;99992.75;5102121;28;20051;-74
2021/12/09 08:46:44;;;;;;;164.68;59.22;;;;;;;4.44;60.28;99992.91;5103462;28;20078;-74
2021/12/09 08:49:14;;;;;;;165.30;60.83;;;;;;;3.74;61.36;100009.41;5106929;28;20043;-74
2021/12/09 08:51:41;;;;;;;155.82;58.03;;;;;;;4.49;60.35;100022.44;5106514;28;20052;-74
2021/12/09 08:54:20;;;;;;;170.65;59.22;;;;;;;4.41;60.20;100026.59;5107522;28;20052;-74
2021/12/09 08:56:51;;;;;;;160.98;59.45;;;;;;;5.08;58.47;99991.66;5101945;28;20171;-74
2021/12/09 08:59:22;;;;;;;155.27;57.70;;;;;;;4.47;59.33;99984.78;5085701;28;20064;-74
2021/12/09 09:02:08;;;;;;;150.13;54.97;;;;;;;4.72;59.39;100006.69;5085951;28;20041;-74
2021/12/09 09:04:35;;;;;;;158.48;58.72;;;;;;;4.88;58.39;100011.66;5086779;28;20051;-74
2021/12/09 09:07:08;;;;;;;151.02;55.97;;;;;;;4.10;60.40;99991.06;5087132;28;20472;-74
2021/12/09 09:09:36;;;;;;;148.40;55.58;;;;;;;3.53;62.29;99972.22;5084090;28;20372;-74
2021/12/09 09:12:06;;;;;;;149.75;55.63;;;;;;;3.84;61.66;99983.19;5069133;28;20098;-74
2021/12/09 09:14:33;;;;;;;143.18;55.55;;;;;;;3.23;63.23;99996.25;5086473;28;20052;-73
2021/12/09 09:17:00;;;;;;;157.75;58.88;;;;;;;3.46;62.73;99999.06;5086874;28;20473;-73
2021/12/09 09:19:27;;;;;;;160.18;61.22;;;;;;;4.11;61.19;100000.63;5085357;28;20070;-74
2021/12/09 09:21:54;;;;;;;156.48;60.13;;;;;;;3.77;61.80;100018.84;5083908;28;20055;-74
2021/12/09 09:24:21;;;;;;;164.88;61.83;;;;;;;4.38;60.46;100019.75;5087028;28;20048;-74
2021/12/09 09:26:47;;;;;;;162.15;60.40;;;;;;;4.98;58.89;100012.66;5067315;28;20040;-74
2021/12/09 09:29:14;;;;;;;158.82;60.63;;;;;;;4.83;59.55;100006.72;5084105;28;20048;-74
2021/12/09 09:31:42;;;;;;;160.43;61.42;;;;;;;4.85;58.82;100010.13;5083099;28;20044;-74
2021/12/09 09:34:11;;;;;;;158.55;60.65;;;;;;;4.31;60.00;100015.88;5083597;28;20070;-74
2021/12/09 09:36:44;;;;;;;158.80;60.30;;;;;;;4.28;60.09;100008.16;5075002;28;20071;-74
2021/12/09 09:39:21;;;;;;;151.43;59.25;;;;;;;4.12;60.60;99997.91;5080734;28;20045;-73
2021/12/09 09:41:59;;;;;;;151.65;57.22;;;;;;;3.64;61.60;99994.31;5084638;28;20045;-73
2021/12/09 09:44:44;;;;;;;153.60;58.97;;;;;;;3.78;61.39;99996.84;5083033;28;20048;-74
2021/12/09 09:47:11;;;;;;;156.05;59.53;;;;;;;3.56;61.81;100011.50;5077795;28;20044;-74
2021/12/09 09:49:39;;;;;;;166.88;60.78;;;;;;;4.27;60.39;100003.88;5084165;28;20094;-73
2021/12/09 09:52:08;;;;;;;148.45;60.70;;;;;;;3.92;61.32;99995.84;5084553;28;20110;-73
2021/12/09 09:54:40;;;;;;;162.40;60.35;;;;;;;4.02;61.36;99996.88;5079413;28;20064;-74
2021/12/09 09:57:09;;;;;;;147.45;60.08;;;;;;;4.28;60.46;99992.34;5086235;28;20044;-73
2021/12/09 09:59:37;;;;;;;150.68;60.53;;;;;;;4.84;59.41;99992.56;5104342;28;20113;-74
2021/12/09 10:02:04;;;;;;;164.82;61.25;;;;;;;4.82;58.88;99991.84;5095090;28;20046;-73
2021/12/09 10:04:45;;;;;;;154.38;60.63;;;;;;;4.36;59.56;99989.97;5111618;28;20082;-73
2021/12/09 10:07:16;;;;;;;152.63;60.30;;;;;;;4.15;60.20;99992.38;5103516;28;20051;-73
2021/12/09 10:09:43;;;;;;;133.00;53.97;;;;;;;3.70;61.31;99993.88;5104019;28;20055;-73
2021/12/09 10:12:12;;;;;;;149.98;56.80;;;;;;;3.67;61.53;99986.19;5085219;28;20040;-71
2021/12/09 10:14:41;;;;;;;147.63;57.15;;;;;;;3.77;61.40;99987.22;5101643;28;20069;-73
2021/12/09 10:17:16;;;;;;;151.70;58.55;;;;;;;4.84;58.47;99999.66;5103574;28;20127;-73
2021/12/09 10:20:05;;;;;;;145.88;57.78;;;;;;;5.03;58.21;99985.91;5102334;28;20539;-74
2021/12/09 10:22:35;;;;;;;;;;;;;;;5.12;57.46;99982.53;5104152;28;20047;-73
2021/12/09 10:25:16;;;;;;;132.70;54.42;;;;;;;4.30;59.43;99982.53;5101474;28;19941;-73
2021/12/09 10:27:45;;;;;;;126.13;51.53;;;;;;;4.18;60.01;99994.81;5101572;28;20071;-74
2021/12/09 10:30:19;;;;;;;132.93;54.80;;;;;;;5.00;57.75;99990.47;5100724;28;20442;-73
2021/12/09 10:32:46;;;;;;;135.57;52.60;;;;;;;3.79;60.32;100002.00;5099897;28;20044;-74
2021/12/09 10:35:21;;;;;;;143.10;56.42;;;;;;;4.42;58.92;100008.00;5102583;28;20048;-74
2021/12/09 10:37:53;;;;;;;133.23;54.53;;;;;;;4.70;58.42;100016.53;5102520;28;20470;-74
2021/12/09 10:40:28;;;;;;;130.85;53.75;;;;;;;4.97;57.02;100014.47;5108145;28;20046;-73
2021/12/09 10:42:57;;;;;;;131.35;55.42;;;;;;;4.88;57.62;100012.50;5100577;28;20066;-73
2021/12/09 10:45:30;;;;;;;127.43;55.22;;;;;;;4.95;57.45;100011.09;5100135;28;20048;-74
2021/12/09 10:55:57;;;;;;;131.05;55.72;;;;;;;5.19;56.67;99999.59;5100096;28;20048;-74
2021/12/09 10:58:29;;;;;;;133.38;54.63;;;;;;;4.45;58.29;99999.88;5100548;28;20109;-74
2021/12/09 11:00:59;;;;;;;124.20;51.17;;;;;;;4.68;57.63;99987.63;5099084;28;20209;-74
2021/12/09 11:03:40;;;;;;;119.35;50.75;;;;;;;5.27;56.17;99970.81;5100698;28;20056;-74
2021/12/09 11:06:10;;;;;;;124.37;52.50;;;;;;;5.34;56.23;99956.16;5099334;28;20048;-73
2021/12/09 11:08:41;;;;;;;125.78;52.20;;;;;;;5.05;56.83;99958.41;5100533;28;20278;-73
2021/12/09 11:11:16;;;;;;;128.52;54.38;;;;;;;4.72;57.08;99949.47;5102148;28;20044;-73
2021/12/09 11:13:51;;;;;;;117.90;49.38;;;;;;;4.82;57.43;99954.91;5101177;28;20047;-74
2021/12/09 11:16:33;;;;;;;120.78;51.92;;;;;;;5.01;57.06;99971.00;5101223;28;20044;-73
2021/12/09 11:19:09;;;;;;;121.38;51.83;;;;;;;4.97;56.75;99964.28;5101673;28;20565;-74
2021/12/09 11:21:41;;;;;;;120.78;51.67;;;;;;;5.28;55.99;99959.28;5101529;28;20043;-73
2021/12/09 11:24:12;;;;;;;126.57;53.42;;;;;;;5.43;56.10;99944.84;5100438;28;20047;-73
2021/12/09 11:26:47;;;;;;;;;;;;;;;5.62;55.41;99938.13;5101537;28;20119;-73
2021/12/09 11:29:16;;;;;;;116.93;49.53;;;;;;;5.14;56.14;99948.94;5101161;28;19920;-73
2021/12/09 11:31:55;;;;;;;120.68;49.42;;;;;;;5.54;55.43;99944.00;5099800;28;20064;-73
2021/12/09 11:34:26;;;;;;;118.63;49.67;;;;;;;5.23;56.50;99937.66;5103698;28;20048;-74
2021/12/09 11:37:11;;;;;;;117.88;50.38;;;;;;;4.98;56.70;99955.38;5097402;28;20100;-73